sensor_id;sensor_type;location;lat;lon;timestamp;pressure;altitude;pressure_sealevel;temperature
68440;BMP180;55421;51.600;5.718;2023-02-15T00:00:00;156134.59;;;2.90
68440;BMP180;55421;51.600;5.718;2023-02-15T00:02:27;155911.59;;;2.90
68440;BMP180;55421;51.600;5.718;2023-02-15T00:04:54;155808.59;;;2.84
68440;BMP180;55421;51.600;5.718;2023-02-15T00:07:22;155239.41;;;2.80
68440;BMP180;55421;51.600;5.718;2023-02-15T00:09:49;153362.41;;;2.60
68440;BMP180;55421;51.600;5.718;2023-02-15T00:12:16;153629.20;;;2.60
68440;BMP180;55421;51.600;5.718;2023-02-15T00:14:42;153071.41;;;2.56
68440;BMP180;55421;51.600;5.718;2023-02-15T00:17:09;152107.00;;;2.40
68440;BMP180;55421;51.600;5.718;2023-02-15T00:19:36;151481.59;;;2.38
68440;BMP180;55421;51.600;5.718;2023-02-15T00:22:02;151896.00;;;2.40
68440;BMP180;55421;51.600;5.718;2023-02-15T00:24:29;152853.20;;;2.40
68440;BMP180;55421;51.600;5.718;2023-02-15T00:26:55;152989.41;;;2.40
68440;BMP180;55421;51.600;5.718;2023-02-15T00:29:22;153218.59;;;2.40
68440;BMP180;55421;51.600;5.718;2023-02-15T00:31:48;153117.59;;;2.32
68440;BMP180;55421;51.600;5.718;2023-02-15T00:36:45;152143.41;;;2.28
68440;BMP180;55421;51.600;5.718;2023-02-15T00:39:12;151352.20;;;2.22
68440;BMP180;55421;51.600;5.718;2023-02-15T00:41:39;152399.80;;;2.30
68440;BMP180;55421;51.600;5.718;2023-02-15T00:44:07;152503.20;;;2.30
68440;BMP180;55421;51.600;5.718;2023-02-15T00:46:34;152926.80;;;2.30
68440;BMP180;55421;51.600;5.718;2023-02-15T00:49:01;153074.80;;;2.30
68440;BMP180;55421;51.600;5.718;2023-02-15T00:51:27;152284.80;;;2.30
68440;BMP180;55421;51.600;5.718;2023-02-15T00:53:54;152659.41;;;2.30
68440;BMP180;55421;51.600;5.718;2023-02-15T00:56:21;152891.41;;;2.30
68440;BMP180;55421;51.600;5.718;2023-02-15T00:58:48;152751.59;;;2.32
68440;BMP180;55421;51.600;5.718;2023-02-15T01:01:18;152312.00;;;2.40
68440;BMP180;55421;51.600;5.718;2023-02-15T01:03:45;152247.41;;;2.38
68440;BMP180;55421;51.600;5.718;2023-02-15T01:06:15;152022.80;;;2.30
68440;BMP180;55421;51.600;5.718;2023-02-15T01:08:43;151543.80;;;2.30
68440;BMP180;55421;51.600;5.718;2023-02-15T01:11:14;151423.59;;;2.22
68440;BMP180;55421;51.600;5.718;2023-02-15T01:13:41;150954.59;;;2.20
68440;BMP180;55421;51.600;5.718;2023-02-15T01:16:08;150691.80;;;2.10
68440;BMP180;55421;51.600;5.718;2023-02-15T01:18:35;150723.00;;;2.10
68440;BMP180;55421;51.600;5.718;2023-02-15T01:21:14;150537.59;;;2.00
68440;BMP180;55421;51.600;5.718;2023-02-15T01:23:42;150351.20;;;1.90
68440;BMP180;55421;51.600;5.718;2023-02-15T01:26:09;150061.00;;;1.90
68440;BMP180;55421;51.600;5.718;2023-02-15T01:28:36;151092.59;;;1.90
68440;BMP180;55421;51.600;5.718;2023-02-15T01:31:12;152493.20;;;1.90
68440;BMP180;55421;51.600;5.718;2023-02-15T01:33:40;152812.59;;;1.90
68440;BMP180;55421;51.600;5.718;2023-02-15T01:36:06;153077.80;;;1.90
68440;BMP180;55421;51.600;5.718;2023-02-15T01:38:35;153437.20;;;1.98
68440;BMP180;55421;51.600;5.718;2023-02-15T01:41:03;152491.20;;;1.96
68440;BMP180;55421;51.600;5.718;2023-02-15T01:44:00;153119.59;;;1.90
68440;BMP180;55421;51.600;5.718;2023-02-15T01:46:39;152706.80;;;1.90
68440;BMP180;55421;51.600;5.718;2023-02-15T01:49:20;152780.80;;;1.80
68440;BMP180;55421;51.600;5.718;2023-02-15T01:51:51;152285.41;;;1.80
68440;BMP180;55421;51.600;5.718;2023-02-15T01:54:25;151402.00;;;1.72
68440;BMP180;55421;51.600;5.718;2023-02-15T01:56:59;150869.80;;;1.70
68440;BMP180;55421;51.600;5.718;2023-02-15T01:59:27;150564.59;;;1.60
68440;BMP180;55421;51.600;5.718;2023-02-15T02:01:58;150100.59;;;1.50
68440;BMP180;55421;51.600;5.718;2023-02-15T02:04:37;149669.59;;;1.40
68440;BMP180;55421;51.600;5.718;2023-02-15T02:07:04;149681.41;;;1.40
68440;BMP180;55421;51.600;5.718;2023-02-15T02:09:32;149923.00;;;1.36
68440;BMP180;55421;51.600;5.718;2023-02-15T02:11:59;149223.00;;;1.30
68440;BMP180;55421;51.600;5.718;2023-02-15T02:14:27;148478.59;;;1.30
68440;BMP180;55421;51.600;5.718;2023-02-15T02:17:05;148052.00;;;1.30
68440;BMP180;55421;51.600;5.718;2023-02-15T02:29:10;151900.00;;;1.30
68440;BMP180;55421;51.600;5.718;2023-02-15T02:32:28;153273.20;;;1.30
68440;BMP180;55421;51.600;5.718;2023-02-15T02:35:12;154696.80;;;1.40
68440;BMP180;55421;51.600;5.718;2023-02-15T02:37:53;155703.80;;;1.40
68440;BMP180;55421;51.600;5.718;2023-02-15T02:40:39;156051.59;;;1.40
68440;BMP180;55421;51.600;5.718;2023-02-15T02:43:31;156511.41;;;1.40
68440;BMP180;55421;51.600;5.718;2023-02-15T02:46:43;155981.59;;;1.40
68440;BMP180;55421;51.600;5.718;2023-02-15T02:49:11;155137.20;;;1.30
68440;BMP180;55421;51.600;5.718;2023-02-15T02:51:38;154696.20;;;1.30
68440;BMP180;55421;51.600;5.718;2023-02-15T02:54:06;153426.59;;;1.30
68440;BMP180;55421;51.600;5.718;2023-02-15T02:56:46;152170.80;;;1.30
68440;BMP180;55421;51.600;5.718;2023-02-15T02:59:25;153231.80;;;1.20
68440;BMP180;55421;51.600;5.718;2023-02-15T03:02:05;154660.59;;;1.20
68440;BMP180;55421;51.600;5.718;2023-02-15T03:04:46;154941.59;;;1.20
68440;BMP180;55421;51.600;5.718;2023-02-15T03:07:21;153757.20;;;1.10
68440;BMP180;55421;51.600;5.718;2023-02-15T03:09:52;152684.00;;;1.10
68440;BMP180;55421;51.600;5.718;2023-02-15T03:12:31;154037.00;;;1.12
68440;BMP180;55421;51.600;5.718;2023-02-15T03:15:08;153657.00;;;1.18
68440;BMP180;55421;51.600;5.718;2023-02-15T03:17:41;154230.00;;;1.20
68440;BMP180;55421;51.600;5.718;2023-02-15T03:20:22;153388.59;;;1.12
68440;BMP180;55421;51.600;5.718;2023-02-15T03:22:59;153090.20;;;1.20
68440;BMP180;55421;51.600;5.718;2023-02-15T03:25:40;152155.00;;;1.20
68440;BMP180;55421;51.600;5.718;2023-02-15T03:28:15;150552.20;;;1.20
68440;BMP180;55421;51.600;5.718;2023-02-15T03:30:45;151138.59;;;1.24
68440;BMP180;55421;51.600;5.718;2023-02-15T03:33:15;152362.41;;;1.30
68440;BMP180;55421;51.600;5.718;2023-02-15T03:35:54;152889.59;;;1.30
68440;BMP180;55421;51.600;5.718;2023-02-15T03:41:44;153169.00;;;1.20
68440;BMP180;55421;51.600;5.718;2023-02-15T03:44:27;153154.20;;;1.20
68440;BMP180;55421;51.600;5.718;2023-02-15T03:47:08;152194.59;;;1.10
68440;BMP180;55421;51.600;5.718;2023-02-15T03:49:47;152090.41;;;1.10
68440;BMP180;55421;51.600;5.718;2023-02-15T03:52:16;151765.41;;;1.10
68440;BMP180;55421;51.600;5.718;2023-02-15T03:54:44;152175.80;;;1.10
68440;BMP180;55421;51.600;5.718;2023-02-15T03:57:21;151551.00;;;1.10
68440;BMP180;55421;51.600;5.718;2023-02-15T04:00:19;153750.00;;;1.10
68440;BMP180;55421;51.600;5.718;2023-02-15T04:03:18;152826.20;;;1.10
68440;BMP180;55421;51.600;5.718;2023-02-15T04:05:46;152042.41;;;1.10
68440;BMP180;55421;51.600;5.718;2023-02-15T04:08:13;153663.20;;;1.10
68440;BMP180;55421;51.600;5.718;2023-02-15T04:10:39;151454.00;;;1.00
68440;BMP180;55421;51.600;5.718;2023-02-15T04:13:31;149651.00;;;1.00
68440;BMP180;55421;51.600;5.718;2023-02-15T04:15:58;148465.20;;;0.90
68440;BMP180;55421;51.600;5.718;2023-02-15T04:18:42;149205.80;;;0.90
68440;BMP180;55421;51.600;5.718;2023-02-15T04:21:30;150229.00;;;0.90
68440;BMP180;55421;51.600;5.718;2023-02-15T04:24:15;149775.80;;;0.98
68440;BMP180;55421;51.600;5.718;2023-02-15T04:27:02;149722.41;;;1.00
68440;BMP180;55421;51.600;5.718;2023-02-15T04:29:30;149635.20;;;1.00
68440;BMP180;55421;51.600;5.718;2023-02-15T04:32:01;149652.00;;;1.00
68440;BMP180;55421;51.600;5.718;2023-02-15T04:34:30;149734.80;;;1.00
68440;BMP180;55421;51.600;5.718;2023-02-15T04:36:57;150234.41;;;1.00
68440;BMP180;55421;51.600;5.718;2023-02-15T04:39:23;150630.59;;;1.00
68440;BMP180;55421;51.600;5.718;2023-02-15T04:41:49;150048.59;;;1.00
68440;BMP180;55421;51.600;5.718;2023-02-15T04:44:16;149761.80;;;1.00
68440;BMP180;55421;51.600;5.718;2023-02-15T04:46:42;149516.59;;;1.00
68440;BMP180;55421;51.600;5.718;2023-02-15T04:49:09;149157.80;;;0.90
68440;BMP180;55421;51.600;5.718;2023-02-15T04:51:37;149355.20;;;0.90
68440;BMP180;55421;51.600;5.718;2023-02-15T04:54:04;148297.20;;;0.90
68440;BMP180;55421;51.600;5.718;2023-02-15T04:56:30;148747.41;;;0.90
68440;BMP180;55421;51.600;5.718;2023-02-15T04:58:59;148939.00;;;0.90
68440;BMP180;55421;51.600;5.718;2023-02-15T05:01:25;147785.41;;;0.90
68440;BMP180;55421;51.600;5.718;2023-02-15T05:03:52;147430.59;;;0.82
68440;BMP180;55421;51.600;5.718;2023-02-15T05:06:18;146087.59;;;0.80
68440;BMP180;55421;51.600;5.718;2023-02-15T05:08:45;145845.80;;;0.70
68440;BMP180;55421;51.600;5.718;2023-02-15T05:11:11;146499.00;;;0.70
68440;BMP180;55421;51.600;5.718;2023-02-15T05:13:38;146590.20;;;0.66
68440;BMP180;55421;51.600;5.718;2023-02-15T05:16:04;146839.00;;;0.60
68440;BMP180;55421;51.600;5.718;2023-02-15T05:18:31;147549.20;;;0.60
68440;BMP180;55421;51.600;5.718;2023-02-15T05:20:57;147916.59;;;0.60
68440;BMP180;55421;51.600;5.718;2023-02-15T05:23:24;148365.00;;;0.60
68440;BMP180;55421;51.600;5.718;2023-02-15T05:25:51;148202.20;;;0.60
68440;BMP180;55421;51.600;5.718;2023-02-15T05:28:37;149039.20;;;0.60
68440;BMP180;55421;51.600;5.718;2023-02-15T05:31:15;148536.59;;;0.56
68440;BMP180;55421;51.600;5.718;2023-02-15T05:33:44;149325.20;;;0.60
68440;BMP180;55421;51.600;5.718;2023-02-15T05:36:11;150098.20;;;0.60
68440;BMP180;55421;51.600;5.718;2023-02-15T05:38:41;150144.00;;;0.60
68440;BMP180;55421;51.600;5.718;2023-02-15T05:41:09;148910.20;;;0.60
68440;BMP180;55421;51.600;5.718;2023-02-15T05:43:37;148299.59;;;0.60
68440;BMP180;55421;51.600;5.718;2023-02-15T05:46:05;149087.80;;;0.60
68440;BMP180;55421;51.600;5.718;2023-02-15T05:48:33;149060.80;;;0.60
68440;BMP180;55421;51.600;5.718;2023-02-15T05:51:03;153084.41;;;0.60
68440;BMP180;55421;51.600;5.718;2023-02-15T05:53:32;154560.41;;;0.70
68440;BMP180;55421;51.600;5.718;2023-02-15T05:56:00;155373.59;;;0.70
68440;BMP180;55421;51.600;5.718;2023-02-15T05:58:32;155583.59;;;0.72
68440;BMP180;55421;51.600;5.718;2023-02-15T06:00:59;154747.20;;;0.72
68440;BMP180;55421;51.600;5.718;2023-02-15T06:03:26;155263.41;;;0.70
68440;BMP180;55421;51.600;5.718;2023-02-15T06:05:54;154611.41;;;0.70
68440;BMP180;55421;51.600;5.718;2023-02-15T06:08:20;153267.41;;;0.70
68440;BMP180;55421;51.600;5.718;2023-02-15T06:10:47;153691.41;;;0.70
68440;BMP180;55421;51.600;5.718;2023-02-15T06:13:13;154078.41;;;0.76
68440;BMP180;55421;51.600;5.718;2023-02-15T06:15:40;153742.59;;;0.80
68440;BMP180;55421;51.600;5.718;2023-02-15T06:18:06;153920.59;;;0.80
68440;BMP180;55421;51.600;5.718;2023-02-15T06:20:33;152808.59;;;0.80
68440;BMP180;55421;51.600;5.718;2023-02-15T06:22:59;154026.00;;;0.72
68440;BMP180;55421;51.600;5.718;2023-02-15T06:25:26;152599.41;;;0.70
68440;BMP180;55421;51.600;5.718;2023-02-15T06:27:52;151984.80;;;0.70
68440;BMP180;55421;51.600;5.718;2023-02-15T06:30:19;152243.20;;;0.70
68440;BMP180;55421;51.600;5.718;2023-02-15T06:32:46;150631.59;;;0.60
68440;BMP180;55421;51.600;5.718;2023-02-15T06:35:13;150649.80;;;0.60
68440;BMP180;55421;51.600;5.718;2023-02-15T06:37:45;149046.00;;;0.54
68440;BMP180;55421;51.600;5.718;2023-02-15T06:40:13;148516.41;;;0.50
68440;BMP180;55421;51.600;5.718;2023-02-15T06:42:41;148635.80;;;0.40
68440;BMP180;55421;51.600;5.718;2023-02-15T06:45:09;147893.20;;;0.38
68440;BMP180;55421;51.600;5.718;2023-02-15T06:47:36;149195.59;;;0.32
68440;BMP180;55421;51.600;5.718;2023-02-15T06:50:06;149321.20;;;0.38
68440;BMP180;55421;51.600;5.718;2023-02-15T06:52:33;149204.20;;;0.40
68440;BMP180;55421;51.600;5.718;2023-02-15T06:54:59;148396.59;;;0.40
68440;BMP180;55421;51.600;5.718;2023-02-15T06:57:26;149029.00;;;0.40
68440;BMP180;55421;51.600;5.718;2023-02-15T06:59:52;148828.59;;;0.50
68440;BMP180;55421;51.600;5.718;2023-02-15T07:02:19;148384.20;;;0.52
68440;BMP180;55421;51.600;5.718;2023-02-15T07:04:45;147970.00;;;0.54
68440;BMP180;55421;51.600;5.718;2023-02-15T07:07:13;148488.80;;;0.60
68440;BMP180;55421;51.600;5.718;2023-02-15T07:09:39;148627.41;;;0.60
68440;BMP180;55421;51.600;5.718;2023-02-15T07:12:06;150700.00;;;0.60
68440;BMP180;55421;51.600;5.718;2023-02-15T07:14:52;150368.59;;;0.60
68440;BMP180;55421;51.600;5.718;2023-02-15T07:17:18;151788.41;;;0.70
68440;BMP180;55421;51.600;5.718;2023-02-15T07:19:44;151564.00;;;0.72
68440;BMP180;55421;51.600;5.718;2023-02-15T07:22:11;151140.00;;;0.80
68440;BMP180;55421;51.600;5.718;2023-02-15T07:24:37;151467.00;;;0.84
68440;BMP180;55421;51.600;5.718;2023-02-15T07:27:07;151364.41;;;0.90
68440;BMP180;55421;51.600;5.718;2023-02-15T07:29:33;151100.00;;;0.90
68440;BMP180;55421;51.600;5.718;2023-02-15T07:32:00;151525.80;;;0.94
68440;BMP180;55421;51.600;5.718;2023-02-15T07:34:26;151304.41;;;1.00
68440;BMP180;55421;51.600;5.718;2023-02-15T07:36:53;151300.20;;;1.00
68440;BMP180;55421;51.600;5.718;2023-02-15T07:39:20;150881.20;;;1.00
68440;BMP180;55421;51.600;5.718;2023-02-15T07:41:46;150480.20;;;1.00
68440;BMP180;55421;51.600;5.718;2023-02-15T07:44:14;150348.59;;;1.00
68440;BMP180;55421;51.600;5.718;2023-02-15T07:46:41;150537.00;;;1.00
68440;BMP180;55421;51.600;5.718;2023-02-15T07:49:07;151442.41;;;1.00
68440;BMP180;55421;51.600;5.718;2023-02-15T07:51:34;152633.80;;;1.10
68440;BMP180;55421;51.600;5.718;2023-02-15T07:54:00;153625.00;;;1.20
68440;BMP180;55421;51.600;5.718;2023-02-15T07:56:27;154420.20;;;1.30
68440;BMP180;55421;51.600;5.718;2023-02-15T07:58:53;154233.41;;;1.40
68440;BMP180;55421;51.600;5.718;2023-02-15T08:01:29;155047.59;;;1.50
68440;BMP180;55421;51.600;5.718;2023-02-15T08:03:56;155275.80;;;1.50
68440;BMP180;55421;51.600;5.718;2023-02-15T08:06:27;155268.59;;;1.60
68440;BMP180;55421;51.600;5.718;2023-02-15T08:08:54;155262.20;;;1.60
68440;BMP180;55421;51.600;5.718;2023-02-15T08:16:49;156508.00;;;1.80
68440;BMP180;55421;51.600;5.718;2023-02-15T08:21:54;156990.59;;;1.90
68440;BMP180;55421;51.600;5.718;2023-02-15T08:24:25;157274.41;;;2.00
68440;BMP180;55421;51.600;5.718;2023-02-15T08:26:53;157779.00;;;2.10
68440;BMP180;55421;51.600;5.718;2023-02-15T08:29:23;158106.00;;;2.20
68440;BMP180;55421;51.600;5.718;2023-02-15T08:31:55;158755.80;;;2.30
68440;BMP180;55421;51.600;5.718;2023-02-15T08:34:24;158560.80;;;2.40
68440;BMP180;55421;51.600;5.718;2023-02-15T08:36:51;158339.20;;;2.50
68440;BMP180;55421;51.600;5.718;2023-02-15T08:39:17;158653.20;;;2.50
68440;BMP180;55421;51.600;5.718;2023-02-15T08:41:47;157105.00;;;2.60
68440;BMP180;55421;51.600;5.718;2023-02-15T08:44:18;157734.80;;;2.60
68440;BMP180;55421;51.600;5.718;2023-02-15T08:46:48;158233.41;;;2.70
68440;BMP180;55421;51.600;5.718;2023-02-15T08:49:21;158296.59;;;2.80
68440;BMP180;55421;51.600;5.718;2023-02-15T08:51:49;158571.20;;;2.90
68440;BMP180;55421;51.600;5.718;2023-02-15T08:54:19;159101.00;;;3.00
68440;BMP180;55421;51.600;5.718;2023-02-15T08:56:48;159152.80;;;3.04
68440;BMP180;55421;51.600;5.718;2023-02-15T08:59:21;156036.80;;;3.10
68440;BMP180;55421;51.600;5.718;2023-02-15T09:01:50;156204.41;;;3.20
68440;BMP180;55421;51.600;5.718;2023-02-15T09:04:18;156029.80;;;3.20
68440;BMP180;55421;51.600;5.718;2023-02-15T09:06:47;156115.80;;;3.30
68440;BMP180;55421;51.600;5.718;2023-02-15T09:09:16;156148.00;;;3.38
68440;BMP180;55421;51.600;5.718;2023-02-15T09:11:47;158914.20;;;3.40
68440;BMP180;55421;51.600;5.718;2023-02-15T09:14:18;160982.20;;;3.50
68440;BMP180;55421;51.600;5.718;2023-02-15T09:16:47;161539.59;;;3.60
68440;BMP180;55421;51.600;5.718;2023-02-15T09:19:17;161740.00;;;3.80
68440;BMP180;55421;51.600;5.718;2023-02-15T09:21:44;161857.00;;;3.86
68440;BMP180;55421;51.600;5.718;2023-02-15T09:24:14;161902.41;;;3.90
68440;BMP180;55421;51.600;5.718;2023-02-15T09:26:44;161927.59;;;3.90
68440;BMP180;55421;51.600;5.718;2023-02-15T09:29:13;161955.80;;;4.00
68440;BMP180;55421;51.600;5.718;2023-02-15T09:31:44;161982.20;;;4.00
68440;BMP180;55421;51.600;5.718;2023-02-15T09:34:17;162016.20;;;4.10
68440;BMP180;55421;51.600;5.718;2023-02-15T09:36:45;162062.41;;;4.20
68440;BMP180;55421;51.600;5.718;2023-02-15T09:39:18;162104.00;;;4.30
68440;BMP180;55421;51.600;5.718;2023-02-15T09:45:14;162219.00;;;4.60
68440;BMP180;55421;51.600;5.718;2023-02-15T09:56:53;162418.00;;;5.06
68440;BMP180;55421;51.600;5.718;2023-02-15T09:59:40;162449.80;;;5.12
68440;BMP180;55421;51.600;5.718;2023-02-15T10:03:06;162475.80;;;5.20
68440;BMP180;55421;51.600;5.718;2023-02-15T10:18:22;162749.41;;;5.82
68440;BMP180;55421;51.600;5.718;2023-02-15T10:21:19;162809.41;;;5.96
68440;BMP180;55421;51.600;5.718;2023-02-15T10:26:44;162924.59;;;6.20
68440;BMP180;55421;51.600;5.718;2023-02-15T10:29:37;162967.80;;;6.30
68440;BMP180;55421;51.600;5.718;2023-02-15T10:32:26;163017.00;;;6.44
68440;BMP180;55421;51.600;5.718;2023-02-15T10:35:20;163069.20;;;6.60
68440;BMP180;55421;51.600;5.718;2023-02-15T10:43:56;163172.59;;;6.80
68440;BMP180;55421;51.600;5.718;2023-02-15T10:52:11;163230.00;;;7.10
68440;BMP180;55421;51.600;5.718;2023-02-15T10:57:34;161910.80;;;7.40
68440;BMP180;55421;51.600;5.718;2023-02-15T11:00:15;160975.00;;;7.50
68440;BMP180;55421;51.600;5.718;2023-02-15T11:06:07;158473.41;;;7.80
68440;BMP180;55421;51.600;5.718;2023-02-15T11:08:54;157981.59;;;7.90
68440;BMP180;55421;51.600;5.718;2023-02-15T11:11:34;158016.41;;;8.00
68440;BMP180;55421;51.600;5.718;2023-02-15T11:14:17;159603.20;;;8.10
68440;BMP180;55421;51.600;5.718;2023-02-15T11:16:52;159030.20;;;8.26
68440;BMP180;55421;51.600;5.718;2023-02-15T11:19:31;159977.80;;;8.30
68440;BMP180;55421;51.600;5.718;2023-02-15T11:22:04;159625.41;;;8.44
68440;BMP180;55421;51.600;5.718;2023-02-15T11:24:43;160318.20;;;8.50
68440;BMP180;55421;51.600;5.718;2023-02-15T11:30:17;160404.80;;;8.70
68440;BMP180;55421;51.600;5.718;2023-02-15T11:32:48;160741.00;;;8.80
68440;BMP180;55421;51.600;5.718;2023-02-15T11:35:31;160628.20;;;8.90
68440;BMP180;55421;51.600;5.718;2023-02-15T11:38:23;160151.00;;;8.90
68440;BMP180;55421;51.600;5.718;2023-02-15T11:43:39;157366.00;;;9.00
68440;BMP180;55421;51.600;5.718;2023-02-15T11:46:11;156763.80;;;9.00
68440;BMP180;55421;51.600;5.718;2023-02-15T11:48:38;155563.59;;;9.10
68440;BMP180;55421;51.600;5.718;2023-02-15T11:51:05;155086.20;;;9.10
68440;BMP180;55421;51.600;5.718;2023-02-15T11:53:37;154440.59;;;9.14
68440;BMP180;55421;51.600;5.718;2023-02-15T11:56:04;154506.20;;;9.20
68440;BMP180;55421;51.600;5.718;2023-02-15T11:58:58;154568.20;;;9.30
68440;BMP180;55421;51.600;5.718;2023-02-15T12:01:35;153643.80;;;9.40
68440;BMP180;55421;51.600;5.718;2023-02-15T12:04:21;153427.41;;;9.44
68440;BMP180;55421;51.600;5.718;2023-02-15T12:09:43;153206.80;;;9.66
68440;BMP180;55421;51.600;5.718;2023-02-15T12:12:31;151965.00;;;9.72
68440;BMP180;55421;51.600;5.718;2023-02-15T12:15:02;150211.59;;;9.80
68440;BMP180;55421;51.600;5.718;2023-02-15T12:17:34;149584.80;;;9.80
68440;BMP180;55421;51.600;5.718;2023-02-15T12:20:24;149632.00;;;9.80
68440;BMP180;55421;51.600;5.718;2023-02-15T12:23:05;149838.00;;;9.90
68440;BMP180;55421;51.600;5.718;2023-02-15T12:25:37;149348.80;;;9.90
68440;BMP180;55421;51.600;5.718;2023-02-15T12:28:26;148618.20;;;10.00
68440;BMP180;55421;51.600;5.718;2023-02-15T12:30:57;148897.00;;;10.04
68440;BMP180;55421;51.600;5.718;2023-02-15T12:33:41;148136.59;;;10.10
68440;BMP180;55421;51.600;5.718;2023-02-15T12:36:22;148837.59;;;10.20
68440;BMP180;55421;51.600;5.718;2023-02-15T12:39:21;149344.20;;;10.30
68440;BMP180;55421;51.600;5.718;2023-02-15T12:41:59;149436.20;;;10.40
68440;BMP180;55421;51.600;5.718;2023-02-15T12:44:38;148077.20;;;10.40
68440;BMP180;55421;51.600;5.718;2023-02-15T12:47:18;147238.20;;;10.40
68440;BMP180;55421;51.600;5.718;2023-02-15T12:50:08;145936.41;;;10.40
68440;BMP180;55421;51.600;5.718;2023-02-15T12:52:37;145486.80;;;10.40
68440;BMP180;55421;51.600;5.718;2023-02-15T12:55:27;145211.20;;;10.42
68440;BMP180;55421;51.600;5.718;2023-02-15T12:58:08;142843.00;;;10.50
68440;BMP180;55421;51.600;5.718;2023-02-15T13:00:41;142105.00;;;10.54
68440;BMP180;55421;51.600;5.718;2023-02-15T13:03:17;140950.41;;;10.60
68440;BMP180;55421;51.600;5.718;2023-02-15T13:05:50;140023.00;;;10.60
68440;BMP180;55421;51.600;5.718;2023-02-15T13:08:47;139013.59;;;10.60
68440;BMP180;55421;51.600;5.718;2023-02-15T13:11:24;138239.41;;;10.70
68440;BMP180;55421;51.600;5.718;2023-02-15T13:13:59;137912.41;;;10.70
68440;BMP180;55421;51.600;5.718;2023-02-15T13:16:39;137022.80;;;10.70
68440;BMP180;55421;51.600;5.718;2023-02-15T13:19:12;135057.41;;;10.72
68440;BMP180;55421;51.600;5.718;2023-02-15T13:21:45;134299.41;;;10.80
68440;BMP180;55421;51.600;5.718;2023-02-15T13:24:24;133711.41;;;10.80
68440;BMP180;55421;51.600;5.718;2023-02-15T13:26:55;132567.59;;;10.86
68440;BMP180;55421;51.600;5.718;2023-02-15T13:29:33;133331.41;;;10.90
68440;BMP180;55421;51.600;5.718;2023-02-15T13:34:40;132483.80;;;11.10
68440;BMP180;55421;51.600;5.718;2023-02-15T13:37:44;131195.59;;;11.10
68440;BMP180;55421;51.600;5.718;2023-02-15T13:40:45;130877.80;;;11.10
68440;BMP180;55421;51.600;5.718;2023-02-15T13:43:48;129733.00;;;11.10
68440;BMP180;55421;51.600;5.718;2023-02-15T13:52:17;128674.60;;;11.10
68440;BMP180;55421;51.600;5.718;2023-02-15T13:55:21;128336.20;;;11.14
68440;BMP180;55421;51.600;5.718;2023-02-15T13:58:22;127672.20;;;11.20
68440;BMP180;55421;51.600;5.718;2023-02-15T14:01:16;127674.00;;;11.20
68440;BMP180;55421;51.600;5.718;2023-02-15T14:07:14;128298.80;;;11.20
68440;BMP180;55421;51.600;5.718;2023-02-15T14:10:06;128829.20;;;11.20
68440;BMP180;55421;51.600;5.718;2023-02-15T14:19:13;129748.40;;;11.30
68440;BMP180;55421;51.600;5.718;2023-02-15T14:21:50;128743.00;;;11.30
68440;BMP180;55421;51.600;5.718;2023-02-15T14:24:30;127269.40;;;11.30
68440;BMP180;55421;51.600;5.718;2023-02-15T14:27:10;126300.20;;;11.30
68440;BMP180;55421;51.600;5.718;2023-02-15T14:35:05;123482.20;;;11.30
68440;BMP180;55421;51.600;5.718;2023-02-15T14:38:06;123693.80;;;11.28
68440;BMP180;55421;51.600;5.718;2023-02-15T14:41:16;124980.00;;;11.26
68440;BMP180;55421;51.600;5.718;2023-02-15T14:46:34;122385.60;;;11.20
68440;BMP180;55421;51.600;5.718;2023-02-15T14:56:45;118090.00;;;11.10
68440;BMP180;55421;51.600;5.718;2023-02-15T14:59:21;118180.00;;;11.10
68440;BMP180;55421;51.600;5.718;2023-02-15T15:02:16;115248.60;;;11.10
68440;BMP180;55421;51.600;5.718;2023-02-15T15:07:55;112502.00;;;11.00
68440;BMP180;55421;51.600;5.718;2023-02-15T15:12:56;110241.80;;;10.90
68440;BMP180;55421;51.600;5.718;2023-02-15T15:18:07;102215.80;;;10.80
68440;BMP180;55421;51.600;5.718;2023-02-15T15:20:44;99765.20;;;10.80
68440;BMP180;55421;51.600;5.718;2023-02-15T15:25:43;94697.20;;;10.70
68440;BMP180;55421;51.600;5.718;2023-02-15T15:31:14;96629.20;;;10.60
68440;BMP180;55421;51.600;5.718;2023-02-15T15:34:18;92679.00;;;10.50
68440;BMP180;55421;51.600;5.718;2023-02-15T15:37:08;90388.60;;;10.50
68440;BMP180;55421;51.600;5.718;2023-02-15T15:48:38;88178.00;;;10.24
68440;BMP180;55421;51.600;5.718;2023-02-15T15:51:25;87020.80;;;10.20
68440;BMP180;55421;51.600;5.718;2023-02-15T15:53:54;82986.80;;;10.10
68440;BMP180;55421;51.600;5.718;2023-02-15T15:56:36;80336.20;;;10.10
68440;BMP180;55421;51.600;5.718;2023-02-15T15:59:14;79433.00;;;10.00
68440;BMP180;55421;51.600;5.718;2023-02-15T16:01:45;83160.00;;;9.94
68440;BMP180;55421;51.600;5.718;2023-02-15T16:04:31;84830.20;;;9.90
68440;BMP180;55421;51.600;5.718;2023-02-15T16:09:40;87564.80;;;9.80
68440;BMP180;55421;51.600;5.718;2023-02-15T16:12:17;87539.60;;;9.70
68440;BMP180;55421;51.600;5.718;2023-02-15T16:14:46;87883.40;;;9.70
68440;BMP180;55421;51.600;5.718;2023-02-15T16:17:25;86884.40;;;9.64
68440;BMP180;55421;51.600;5.718;2023-02-15T16:20:03;84657.40;;;9.70
68440;BMP180;55421;51.600;5.718;2023-02-15T16:22:32;85537.00;;;9.68
68440;BMP180;55421;51.600;5.718;2023-02-15T16:28:10;86365.60;;;9.60
68440;BMP180;55421;51.600;5.718;2023-02-15T16:30:40;86549.20;;;9.50
68440;BMP180;55421;51.600;5.718;2023-02-15T16:33:13;88257.00;;;9.50
68440;BMP180;55421;51.600;5.718;2023-02-15T16:35:58;88930.80;;;9.40
68440;BMP180;55421;51.600;5.718;2023-02-15T16:41:25;87063.80;;;9.30
68440;BMP180;55421;51.600;5.718;2023-02-15T16:43:57;85921.60;;;9.28
68440;BMP180;55421;51.600;5.718;2023-02-15T16:46:38;87101.00;;;9.20
68440;BMP180;55421;51.600;5.718;2023-02-15T16:49:17;87771.40;;;9.16
68440;BMP180;55421;51.600;5.718;2023-02-15T16:54:27;87038.60;;;9.00
68440;BMP180;55421;51.600;5.718;2023-02-15T16:56:55;85663.80;;;8.90
68440;BMP180;55421;51.600;5.718;2023-02-15T16:59:50;86869.00;;;8.90
68440;BMP180;55421;51.600;5.718;2023-02-15T17:02:26;89254.00;;;8.80
68440;BMP180;55421;51.600;5.718;2023-02-15T17:07:49;90767.40;;;8.74
68440;BMP180;55421;51.600;5.718;2023-02-15T17:10:39;91843.80;;;8.70
68440;BMP180;55421;51.600;5.718;2023-02-15T17:13:16;93625.00;;;8.70
68440;BMP180;55421;51.600;5.718;2023-02-15T17:16:28;93970.20;;;8.60